This is the latest recevied weather packets stored in our database for station/object VK2KGV-15. If no packets are shown the sender has not sent any weather packets the latest 10 day(s).
| Time | Temp. | Humidity | Pressure | Rain* | Wind** | Luminosity | Snow |
|---|---|---|---|---|---|---|---|
| 1787958184 | 17.22° C | 57% | 1026.4 hPa | 0 mm | - | - | - |
| 1787956375 | 15° C | 70% | 1026.5 hPa | 0 mm | - | - | - |
| 1787955169 | 12.22° C | 89% | 1026.9 hPa | 0 mm | - | - | - |
| 1787952756 | 6.67° C | 96% | 1027 hPa | 0 mm | - | - | - |
| 1787951550 | 5° C | 95% | 1027 hPa | 0 mm | - | - | - |
| 1787950344 | 3.89° C | 97% | 1026.8 hPa | 0 mm | - | - | - |
| 1787949138 | 2.22° C | 94% | 1026.9 hPa | 0 mm | - | - | - |
| 1787947931 | 1.67° C | 93% | 1026.6 hPa | 0 mm | - | - | - |
| 1787945519 | 1.67° C | 94% | 1026.2 hPa | 0 mm | - | - | - |
| 1787944313 | 1.67° C | 93% | 1025.9 hPa | 0 mm | - | - | - |
| 1787943106 | 2.22° C | 94% | 1025.9 hPa | 0 mm | - | - | - |
| 1787940694 | 1.67° C | 91% | 1025.6 hPa | 0 mm | - | - | - |
| 1787937075 | 2.78° C | 92% | 1025.4 hPa | 0 mm | - | - | - |
| 1787934663 | 2.78° C | 91% | 1025.3 hPa | 0 mm | - | - | - |
| 1787928632 | 4.44° C | 88% | 1025.4 hPa | 0 mm | - | - | - |
| 1787927426 | 5° C | 87% | 1025.7 hPa | 0 mm | - | - | - |
| 1787926823 | 5° C | 89% | 1025.6 hPa | 0 mm | - | - | - |
| 1787926220 | 5° C | 88% | 1025.6 hPa | 0 mm | - | - | - |
| 1787925013 | 5° C | 86% | 1025.8 hPa | 0 mm | - | - | - |
| 1787923807 | 5.56° C | 85% | 1025.9 hPa | 0 mm | - | - | - |
| 1787922601 | 5.56° C | 84% | 1025.9 hPa | 0 mm | - | - | - |
| 1787921998 | 6.11° C | 84% | 1026 hPa | 0 mm | - | - | - |
| 1787921395 | 6.11° C | 83% | 1026 hPa | 0 mm | - | - | - |
| 1787920189 | 6.67° C | 82% | 1026 hPa | 0 mm | - | - | - |
| 1787918982 | 7.22° C | 81% | 1026 hPa | 0 mm | - | - | - |
* Rain since midnight (hover to see other rain measurements)
** Current wind speed in m/s (hover to see current wind gust speed)